Home   Weather   Cyprus   North Nicosia   Past weeks
Flag for Cyprus

Past Weather in North Nicosia, Northern Cyprus, Cyprus — Yesterday and Last 2 Weeks

Currently: 61 °F. Clear. (Weather station: Ercan, Cyprus). See more current weather

Past Weather in North Nicosia — Graph

°F

North Nicosia Temperature Yesterday

Maximum temperature yesterday: 82 °F (at 2:20 pm)
Minimum temperature yesterday: 54 °F (at 4:50 am)
Average temperature yesterday: 67 °F

High & Low Weather Summary for the Past Weeks

 TemperatureHumidityPressure
High88 °F (Apr 16, 12:50 pm)100% (Apr 12, 4:20 am)30.15 "Hg (Apr 12, 4:20 am)
Low52 °F (Apr 8, 5:50 am)10% (Apr 15, 4:50 pm)29.65 "Hg (Apr 18, 6:20 am)
Average67 °F63%29.90 "Hg
* Reported Apr 8 12:20 am — Apr 23 12:50 am, North Nicosia. Weather by CustomWeather, © 2024

Note: Actual official high and low records may vary slightly from our data, if they occured in-between our weather recording intervals... More about our weather records

North Nicosia Weather History for the Previous 24 Hours

Scroll right to see more
 ConditionsComfort  
Time TempWeatherWind HumidityBarometerVisibility
12:50 am
Tue, Apr 23
59 °FClear.No wind88%30.12 "Hg10 mi
12:20 am61 °FClear.No wind83%30.12 "Hg10 mi
11:50 pm
Mon, Apr 22
61 °FClear.No wind83%30.15 "Hg10 mi
11:20 pm63 °FClear.3 mph77%30.15 "Hg10 mi
10:50 pm64 °FClear.3 mph78%30.15 "Hg10 mi
10:20 pm63 °FClear.3 mph77%30.15 "Hg10 mi
9:50 pm64 °FClear.3 mph73%30.15 "Hg10 mi
9:20 pm64 °FClear.6 mph78%30.12 "Hg10 mi
8:50 pm66 °FClear.6 mph68%30.12 "Hg10 mi
8:20 pm68 °FClear.6 mph60%30.12 "Hg10 mi
7:50 pm68 °FClear.8 mph56%30.09 "Hg10 mi
7:20 pm72 °FSunny.10 mph50%30.09 "Hg10 mi
6:50 pm73 °FSunny.13 mph44%30.09 "Hg10 mi
6:20 pm75 °FPassing clouds.13 mph41%30.09 "HgN/A
5:50 pm77 °FPassing clouds.5 mph42%30.09 "HgN/A
4:50 pm77 °FPassing clouds.13 mph44%30.07 "HgN/A
3:50 pm79 °FPassing clouds.13 mph39%30.07 "HgN/A
3:20 pm81 °FPassing clouds.14 mph34%30.07 "HgN/A
2:50 pm81 °FPassing clouds.13 mph34%30.07 "HgN/A
2:20 pm82 °FPassing clouds.15 mph32%30.07 "HgN/A
1:50 pm81 °FPassing clouds.3 mph21%30.09 "HgN/A
1:20 pm81 °FPassing clouds.6 mph20%30.09 "HgN/A
12:50 pm81 °FPassing clouds.5 mph20%30.09 "HgN/A
12:20 pm77 °FPassing clouds.3 mph24%30.09 "HgN/A
11:50 am75 °FSunny.7 mph25%30.09 "Hg10 mi
11:20 am75 °FSunny.3 mph29%30.09 "Hg10 mi
9:50 am70 °FSunny.3 mph46%30.09 "Hg10 mi
9:20 am68 °FPassing clouds.6 mph53%30.09 "HgN/A
8:50 am66 °FPassing clouds.7 mph56%30.09 "HgN/A
8:20 am63 °FPassing clouds.8 mph59%30.09 "HgN/A
7:50 am59 °FPassing clouds.5 mph68%30.09 "HgN/A
7:20 am57 °FPassing clouds.3 mph77%30.09 "HgN/A
6:50 am55 °FPassing clouds.3 mph77%30.07 "HgN/A
6:20 am55 °FPassing clouds.5 mph77%30.07 "HgN/A
5:50 am55 °FPassing clouds.5 mph77%30.07 "HgN/A
4:50 am54 °FPassing clouds.3 mph82%30.04 "HgN/A
4:20 am55 °FPassing clouds.5 mph77%30.04 "HgN/A
3:50 am57 °FPassing clouds.9 mph72%30.04 "HgN/A
2:50 am57 °FPassing clouds.10 mph77%30.04 "HgN/A
2:20 am57 °FPassing clouds.6 mph77%30.04 "HgN/A
Weather by CustomWeather, © 2024

See weather overview